createdAt,value
2022-10-01T00:00:07.825Z,944.44
2022-10-01T00:00:17.818Z,944.43
2022-10-01T00:00:27.823Z,944.44
2022-10-01T00:00:37.822Z,944.45
2022-10-01T00:00:47.822Z,944.44
2022-10-01T00:00:57.822Z,944.42
2022-10-01T00:01:07.860Z,944.43
2022-10-01T00:01:17.899Z,944.42
2022-10-01T00:01:27.892Z,944.39
2022-10-01T00:01:38.228Z,944.41
2022-10-01T00:01:47.936Z,944.40
2022-10-01T00:01:57.891Z,944.39
2022-10-01T00:02:07.832Z,944.38
2022-10-01T00:02:17.830Z,944.40
2022-10-01T00:02:27.877Z,944.39
2022-10-01T00:02:37.931Z,944.40
2022-10-01T00:02:47.858Z,944.39
2022-10-01T00:02:57.900Z,944.39
2022-10-01T00:03:07.937Z,944.39
2022-10-01T00:03:17.886Z,944.40
2022-10-01T00:03:27.837Z,944.40
2022-10-01T00:03:37.837Z,944.40
2022-10-01T00:03:47.837Z,944.41
2022-10-01T00:03:57.840Z,944.41
2022-10-01T00:04:07.843Z,944.41
2022-10-01T00:04:17.851Z,944.40
2022-10-01T00:04:27.844Z,944.39
2022-10-01T00:04:37.886Z,944.39
2022-10-01T00:04:47.843Z,944.38
2022-10-01T00:04:57.845Z,944.37
2022-10-01T00:05:07.848Z,944.39
2022-10-01T00:05:17.848Z,944.39
2022-10-01T00:05:27.851Z,944.40
2022-10-01T00:05:37.849Z,944.40
2022-10-01T00:05:47.851Z,944.40
2022-10-01T00:05:57.851Z,944.40
2022-10-01T00:06:07.852Z,944.41
2022-10-01T00:06:17.869Z,944.40
2022-10-01T00:06:27.856Z,944.41
2022-10-01T00:06:37.854Z,944.40
2022-10-01T00:06:47.854Z,944.40
2022-10-01T00:06:57.857Z,944.40
2022-10-01T00:07:07.858Z,944.40
2022-10-01T00:07:17.857Z,944.39
2022-10-01T00:07:27.863Z,944.39
2022-10-01T00:07:37.862Z,944.42
2022-10-01T00:07:47.862Z,944.41
2022-10-01T00:07:57.881Z,944.41
2022-10-01T00:08:07.862Z,944.42
2022-10-01T00:08:17.862Z,944.42
2022-10-01T00:08:27.863Z,944.40
2022-10-01T00:08:37.863Z,944.40
2022-10-01T00:08:47.866Z,944.40
2022-10-01T00:08:57.865Z,944.41
2022-10-01T00:09:07.867Z,944.41
2022-10-01T00:09:17.869Z,944.40
2022-10-01T00:09:27.869Z,944.41
2022-10-01T00:09:37.871Z,944.38
2022-10-01T00:09:47.874Z,944.38
2022-10-01T00:09:57.871Z,944.39
2022-10-01T00:10:07.873Z,944.39
2022-10-01T00:10:17.875Z,944.39
2022-10-01T00:10:27.876Z,944.38
2022-10-01T00:10:37.877Z,944.37
2022-10-01T00:10:47.879Z,944.37
2022-10-01T00:10:57.881Z,944.36
2022-10-01T00:11:07.878Z,944.37
2022-10-01T00:11:17.881Z,944.37
2022-10-01T00:11:27.889Z,944.37
2022-10-01T00:11:37.882Z,944.36
2022-10-01T00:11:47.882Z,944.35
2022-10-01T00:11:57.886Z,944.36
2022-10-01T00:12:07.884Z,944.36
2022-10-01T00:12:17.884Z,944.35
2022-10-01T00:12:27.888Z,944.34
2022-10-01T00:12:37.886Z,944.33
2022-10-01T00:12:47.887Z,944.33
2022-10-01T00:12:57.887Z,944.33
2022-10-01T00:13:07.890Z,944.33
2022-10-01T00:13:17.890Z,944.32
2022-10-01T00:13:27.890Z,944.31
2022-10-01T00:13:37.890Z,944.32
2022-10-01T00:13:47.897Z,944.31
2022-10-01T00:13:57.892Z,944.31
2022-10-01T00:14:07.894Z,944.29
2022-10-01T00:14:17.894Z,944.29
2022-10-01T00:14:27.907Z,944.30
2022-10-01T00:14:37.896Z,944.30
2022-10-01T00:14:47.898Z,944.29
2022-10-01T00:14:57.897Z,944.29
2022-10-01T00:15:09.777Z,944.27
2022-10-01T00:15:17.898Z,944.27
2022-10-01T00:15:27.899Z,944.25
2022-10-01T00:15:37.900Z,944.25
2022-10-01T00:15:47.902Z,944.24
2022-10-01T00:15:57.901Z,944.23
2022-10-01T00:16:07.925Z,944.23
2022-10-01T00:16:17.965Z,944.23
2022-10-01T00:16:27.960Z,944.22
2022-10-01T00:16:37.943Z,944.21
2022-10-01T00:16:48.038Z,944.21
2022-10-01T00:16:58.008Z,944.22
2022-10-01T00:17:07.909Z,944.21
2022-10-01T00:17:17.911Z,944.22
2022-10-01T00:17:27.912Z,944.23
2022-10-01T00:17:37.912Z,944.22
2022-10-01T00:17:47.913Z,944.25
2022-10-01T00:17:57.915Z,944.23
2022-10-01T00:18:07.915Z,944.23
2022-10-01T00:18:17.918Z,944.22
2022-10-01T00:18:27.917Z,944.21
2022-10-01T00:18:37.918Z,944.22
2022-10-01T00:18:47.920Z,944.22
2022-10-01T00:18:57.923Z,944.23
2022-10-01T00:19:07.922Z,944.22
2022-10-01T00:19:17.922Z,944.19
2022-10-01T00:19:27.923Z,944.20
2022-10-01T00:19:37.925Z,944.20
2022-10-01T00:19:47.925Z,944.20
2022-10-01T00:19:57.926Z,944.19
2022-10-01T00:20:14.147Z,944.19
2022-10-01T00:20:18.928Z,944.19
2022-10-01T00:20:27.937Z,944.19
2022-10-01T00:20:37.930Z,944.18
2022-10-01T00:20:47.930Z,944.18
2022-10-01T00:20:57.935Z,944.18
2022-10-01T00:21:07.933Z,944.18
2022-10-01T00:21:17.932Z,944.18
2022-10-01T00:21:27.938Z,944.17
2022-10-01T00:21:37.937Z,944.15
2022-10-01T00:21:47.935Z,944.14
2022-10-01T00:21:57.944Z,944.16
2022-10-01T00:22:07.944Z,944.16
2022-10-01T00:22:17.940Z,944.15
2022-10-01T00:22:27.960Z,944.15
2022-10-01T00:22:37.942Z,944.13
2022-10-01T00:22:47.942Z,944.12
2022-10-01T00:22:57.945Z,944.12
2022-10-01T00:23:07.945Z,944.13
2022-10-01T00:23:17.944Z,944.12
2022-10-01T00:23:27.947Z,944.13
2022-10-01T00:23:37.948Z,944.14
2022-10-01T00:23:47.947Z,944.11
2022-10-01T00:23:57.948Z,944.12
2022-10-01T00:24:07.949Z,944.12
2022-10-01T00:24:17.953Z,944.12
2022-10-01T00:24:27.956Z,944.13
2022-10-01T00:24:37.953Z,944.13
2022-10-01T00:24:47.955Z,944.12
2022-10-01T00:24:57.956Z,944.12
2022-10-01T00:25:07.955Z,944.10
2022-10-01T00:25:17.957Z,944.09
2022-10-01T00:25:27.959Z,944.09
2022-10-01T00:25:37.959Z,944.09
2022-10-01T00:25:47.961Z,944.10
2022-10-01T00:25:57.964Z,944.10
2022-10-01T00:26:07.964Z,944.10
2022-10-01T00:26:17.963Z,944.09
2022-10-01T00:26:27.970Z,944.10
2022-10-01T00:26:37.966Z,944.08
2022-10-01T00:26:47.968Z,944.07
2022-10-01T00:26:57.969Z,944.06
2022-10-01T00:27:07.969Z,944.06
2022-10-01T00:27:17.971Z,944.05
2022-10-01T00:27:27.974Z,944.05
2022-10-01T00:27:37.972Z,944.06
2022-10-01T00:27:48.032Z,944.04
2022-10-01T00:27:58.055Z,944.04
2022-10-01T00:28:08.036Z,944.04
2022-10-01T00:28:18.006Z,944.04
2022-10-01T00:28:28.032Z,944.03
2022-10-01T00:28:37.980Z,944.03
2022-10-01T00:28:47.978Z,944.03
2022-10-01T00:28:57.983Z,944.02
2022-10-01T00:29:07.983Z,944.01
2022-10-01T00:29:17.982Z,944.02
2022-10-01T00:29:27.983Z,944.01
2022-10-01T00:29:37.986Z,944.00
2022-10-01T00:29:47.986Z,944.00
2022-10-01T00:29:57.985Z,943.99
2022-10-01T00:30:07.988Z,943.99
2022-10-01T00:30:17.987Z,943.99
2022-10-01T00:30:27.989Z,943.97
2022-10-01T00:30:40.418Z,943.99
2022-10-01T00:30:48.002Z,943.97
2022-10-01T00:30:58.032Z,943.96
2022-10-01T00:31:08.039Z,943.96
2022-10-01T00:31:18.075Z,943.96
2022-10-01T00:31:28.105Z,943.96
2022-10-01T00:31:38.555Z,943.94
2022-10-01T00:31:48.079Z,943.95
2022-10-01T00:31:58.046Z,943.95
2022-10-01T00:32:08.000Z,943.95
2022-10-01T00:32:18.001Z,943.93
2022-10-01T00:32:28.003Z,943.93
2022-10-01T00:32:38.001Z,943.94
2022-10-01T00:32:47.983Z,943.95
2022-10-01T00:32:58.002Z,943.95
2022-10-01T00:33:08.003Z,943.94
2022-10-01T00:33:18.004Z,943.96
2022-10-01T00:33:28.004Z,943.95
2022-10-01T00:33:38.027Z,943.94
2022-10-01T00:33:48.006Z,943.93
2022-10-01T00:33:58.012Z,943.94
2022-10-01T00:34:08.007Z,943.96
2022-10-01T00:34:18.011Z,943.95
2022-10-01T00:34:28.011Z,943.93
2022-10-01T00:34:38.010Z,943.94
2022-10-01T00:34:48.011Z,943.94
2022-10-01T00:34:58.013Z,943.94
2022-10-01T00:35:08.013Z,943.95
2022-10-01T00:35:18.018Z,943.93
2022-10-01T00:35:28.014Z,943.93
2022-10-01T00:35:38.016Z,943.93
2022-10-01T00:35:48.018Z,943.93
2022-10-01T00:35:58.019Z,943.94
2022-10-01T00:36:08.022Z,943.91
2022-10-01T00:36:18.020Z,943.92
2022-10-01T00:36:28.021Z,943.93
2022-10-01T00:36:38.021Z,943.94
2022-10-01T00:36:48.023Z,943.94
2022-10-01T00:36:58.024Z,943.93
2022-10-01T00:37:08.026Z,943.94
2022-10-01T00:37:18.027Z,943.94
2022-10-01T00:37:28.046Z,943.95
2022-10-01T00:37:38.031Z,943.96
2022-10-01T00:37:48.031Z,943.94
2022-10-01T00:37:58.035Z,943.94
2022-10-01T00:38:08.034Z,943.95
2022-10-01T00:38:18.035Z,943.94
2022-10-01T00:38:28.034Z,943.96
2022-10-01T00:38:38.040Z,943.95
2022-10-01T00:38:48.040Z,943.96
2022-10-01T00:38:58.037Z,943.96
2022-10-01T00:39:08.039Z,943.96
2022-10-01T00:39:18.040Z,943.96
2022-10-01T00:39:28.044Z,943.95
2022-10-01T00:39:38.047Z,943.94
2022-10-01T00:39:48.042Z,943.95
2022-10-01T00:39:58.044Z,943.95
2022-10-01T00:40:08.044Z,943.93
2022-10-01T00:40:18.045Z,943.93
2022-10-01T00:40:28.047Z,943.91
2022-10-01T00:40:38.045Z,943.92
2022-10-01T00:40:48.048Z,943.93
2022-10-01T00:40:58.047Z,943.92
2022-10-01T00:41:08.047Z,943.92
2022-10-01T00:41:18.133Z,943.91
2022-10-01T00:41:28.050Z,943.90
2022-10-01T00:41:38.279Z,943.91
2022-10-01T00:41:48.054Z,943.91
2022-10-01T00:41:58.053Z,943.90
2022-10-01T00:42:08.052Z,943.90
2022-10-01T00:42:18.056Z,943.89
2022-10-01T00:42:28.060Z,943.89
2022-10-01T00:42:38.062Z,943.89
2022-10-01T00:42:48.057Z,943.89
2022-10-01T00:42:58.062Z,943.89
2022-10-01T00:43:08.060Z,943.87
2022-10-01T00:43:18.070Z,943.87
2022-10-01T00:43:28.060Z,943.86
2022-10-01T00:43:38.060Z,943.89
2022-10-01T00:43:48.063Z,943.86
2022-10-01T00:43:58.064Z,943.88
2022-10-01T00:44:08.064Z,943.87
2022-10-01T00:44:18.064Z,943.85
2022-10-01T00:44:28.065Z,943.86
2022-10-01T00:44:38.066Z,943.88
2022-10-01T00:44:48.050Z,943.87
2022-10-01T00:44:58.068Z,943.86
2022-10-01T00:45:08.067Z,943.85
2022-10-01T00:45:18.069Z,943.86
2022-10-01T00:45:28.092Z,943.86
2022-10-01T00:45:38.099Z,943.86
2022-10-01T00:45:48.144Z,943.86
2022-10-01T00:45:58.139Z,943.85
2022-10-01T00:46:08.106Z,943.86
2022-10-01T00:46:18.157Z,943.86
2022-10-01T00:46:28.076Z,943.84
2022-10-01T00:46:38.077Z,943.85
2022-10-01T00:46:48.079Z,943.84
2022-10-01T00:46:58.079Z,943.83
2022-10-01T00:47:08.080Z,943.84
2022-10-01T00:47:18.082Z,943.84
2022-10-01T00:47:28.105Z,943.83
2022-10-01T00:47:38.089Z,943.83
2022-10-01T00:47:48.067Z,943.83
2022-10-01T00:47:58.083Z,943.83
2022-10-01T00:48:08.084Z,943.82
2022-10-01T00:48:18.087Z,943.83
2022-10-01T00:48:28.091Z,943.81
2022-10-01T00:48:38.087Z,943.81
2022-10-01T00:48:48.099Z,943.79
2022-10-01T00:48:58.090Z,943.80
2022-10-01T00:49:08.092Z,943.82
2022-10-01T00:49:18.094Z,943.81
2022-10-01T00:49:28.093Z,943.78
2022-10-01T00:49:38.093Z,943.79
2022-10-01T00:49:48.094Z,943.79
2022-10-01T00:49:59.571Z,943.81
2022-10-01T00:50:08.103Z,943.82
2022-10-01T00:50:18.100Z,943.81
2022-10-01T00:50:28.098Z,943.82
2022-10-01T00:50:38.100Z,943.82
2022-10-01T00:50:48.103Z,943.83
2022-10-01T00:50:58.101Z,943.82
2022-10-01T00:51:08.102Z,943.82
2022-10-01T00:51:18.104Z,943.81
2022-10-01T00:51:28.104Z,943.82
2022-10-01T00:51:38.110Z,943.80
2022-10-01T00:51:48.104Z,943.78
2022-10-01T00:51:58.108Z,943.79
2022-10-01T00:52:08.105Z,943.80
2022-10-01T00:52:18.106Z,943.80
2022-10-01T00:52:28.109Z,943.79
2022-10-01T00:52:38.109Z,943.80
2022-10-01T00:52:48.109Z,943.80
2022-10-01T00:52:58.110Z,943.82
2022-10-01T00:53:08.112Z,943.80
2022-10-01T00:53:18.113Z,943.78
2022-10-01T00:53:28.113Z,943.78
2022-10-01T00:53:38.115Z,943.79
2022-10-01T00:53:48.099Z,943.80
2022-10-01T00:53:58.118Z,943.80
2022-10-01T00:54:08.117Z,943.80
2022-10-01T00:54:18.118Z,943.80
2022-10-01T00:54:28.120Z,943.81
2022-10-01T00:54:38.121Z,943.80
2022-10-01T00:54:48.121Z,943.79
2022-10-01T00:54:58.123Z,943.78
2022-10-01T00:55:08.125Z,943.77
2022-10-01T00:55:18.126Z,943.76
2022-10-01T00:55:28.125Z,943.75
2022-10-01T00:55:38.126Z,943.75
2022-10-01T00:55:48.126Z,943.76
2022-10-01T00:55:58.127Z,943.74
2022-10-01T00:56:08.128Z,943.74
2022-10-01T00:56:18.133Z,943.74
2022-10-01T00:56:28.145Z,943.72
2022-10-01T00:56:38.131Z,943.74
2022-10-01T00:56:48.133Z,943.73
2022-10-01T00:56:58.135Z,943.72
2022-10-01T00:57:08.137Z,943.72
2022-10-01T00:57:18.136Z,943.71
2022-10-01T00:57:28.139Z,943.69
2022-10-01T00:57:38.136Z,943.70
2022-10-01T00:57:48.138Z,943.72
2022-10-01T00:57:58.138Z,943.69
2022-10-01T00:58:08.139Z,943.70
2022-10-01T00:58:18.142Z,943.67
2022-10-01T00:58:28.141Z,943.69
2022-10-01T00:58:38.143Z,943.68
2022-10-01T00:58:48.127Z,943.71
2022-10-01T00:58:58.145Z,943.68
2022-10-01T00:59:08.148Z,943.70
2022-10-01T00:59:18.148Z,943.67
2022-10-01T00:59:28.148Z,943.68
2022-10-01T00:59:38.149Z,943.69
2022-10-01T00:59:48.150Z,943.69
2022-10-01T00:59:58.156Z,943.68
2022-10-01T01:00:08.150Z,943.67
2022-10-01T01:00:18.156Z,943.67
2022-10-01T01:00:28.168Z,943.67
2022-10-01T01:00:38.155Z,943.66
2022-10-01T01:00:48.155Z,943.66
2022-10-01T01:00:58.183Z,943.66
2022-10-01T01:01:08.185Z,943.66
2022-10-01T01:01:18.233Z,943.66
2022-10-01T01:01:28.224Z,943.69
2022-10-01T01:01:38.339Z,943.66
2022-10-01T01:01:48.242Z,943.63
2022-10-01T01:01:58.252Z,943.63
2022-10-01T01:02:08.245Z,943.64
2022-10-01T01:02:18.196Z,943.63
2022-10-01T01:02:28.232Z,943.63
2022-10-01T01:02:38.220Z,943.62
2022-10-01T01:02:48.198Z,943.64
2022-10-01T01:02:58.169Z,943.64
2022-10-01T01:03:08.168Z,943.62
2022-10-01T01:03:18.173Z,943.61
2022-10-01T01:03:28.172Z,943.61
2022-10-01T01:03:38.178Z,943.61
2022-10-01T01:03:48.174Z,943.62
2022-10-01T01:03:58.177Z,943.59
2022-10-01T01:04:08.176Z,943.61
2022-10-01T01:04:18.176Z,943.60
2022-10-01T01:04:28.189Z,943.61
2022-10-01T01:04:38.179Z,943.60
2022-10-01T01:04:48.186Z,943.60
2022-10-01T01:04:58.181Z,943.58
2022-10-01T01:05:08.182Z,943.57
2022-10-01T01:05:18.182Z,943.60
2022-10-01T01:05:28.182Z,943.59
2022-10-01T01:05:38.186Z,943.58
2022-10-01T01:05:48.187Z,943.60
2022-10-01T01:05:58.186Z,943.62
2022-10-01T01:06:08.191Z,943.62
2022-10-01T01:06:18.189Z,943.60
2022-10-01T01:06:28.170Z,943.61
2022-10-01T01:06:38.190Z,943.61
2022-10-01T01:06:48.193Z,943.60
2022-10-01T01:06:58.193Z,943.59
2022-10-01T01:07:08.192Z,943.58
2022-10-01T01:07:18.194Z,943.60
2022-10-01T01:07:28.220Z,943.60
2022-10-01T01:07:38.195Z,943.60
2022-10-01T01:07:48.195Z,943.61
2022-10-01T01:07:58.197Z,943.60
2022-10-01T01:08:08.196Z,943.59
2022-10-01T01:08:18.197Z,943.59
2022-10-01T01:08:28.199Z,943.60
2022-10-01T01:08:38.199Z,943.57
2022-10-01T01:08:48.203Z,943.58
2022-10-01T01:08:58.204Z,943.58
2022-10-01T01:09:08.185Z,943.58
2022-10-01T01:09:18.206Z,943.58
2022-10-01T01:09:28.289Z,943.58
2022-10-01T01:09:38.203Z,943.58
2022-10-01T01:09:48.207Z,943.57
2022-10-01T01:09:58.210Z,943.57
2022-10-01T01:10:08.193Z,943.57
2022-10-01T01:10:18.208Z,943.53
2022-10-01T01:10:28.212Z,943.54
2022-10-01T01:10:38.211Z,943.55
2022-10-01T01:10:48.211Z,943.54
2022-10-01T01:10:58.210Z,943.56
2022-10-01T01:11:08.213Z,943.58
2022-10-01T01:11:18.212Z,943.55
2022-10-01T01:11:28.214Z,943.57
2022-10-01T01:11:38.215Z,943.56
2022-10-01T01:11:48.215Z,943.53
2022-10-01T01:11:58.219Z,943.55
2022-10-01T01:12:08.217Z,943.54
2022-10-01T01:12:18.220Z,943.54
2022-10-01T01:12:28.221Z,943.55
2022-10-01T01:12:38.229Z,943.53
2022-10-01T01:12:48.222Z,943.53
2022-10-01T01:12:58.222Z,943.53
2022-10-01T01:13:08.221Z,943.54
2022-10-01T01:13:18.222Z,943.52
2022-10-01T01:13:28.224Z,943.53
2022-10-01T01:13:38.223Z,943.51
2022-10-01T01:13:48.222Z,943.52
2022-10-01T01:13:58.226Z,943.50
2022-10-01T01:14:08.224Z,943.50
2022-10-01T01:14:18.225Z,943.52
2022-10-01T01:14:28.227Z,943.52
2022-10-01T01:14:38.228Z,943.51
2022-10-01T01:14:48.228Z,943.50
2022-10-01T01:14:58.230Z,943.51
2022-10-01T01:15:08.231Z,943.52
2022-10-01T01:15:18.232Z,943.52
2022-10-01T01:15:28.236Z,943.51
2022-10-01T01:15:38.278Z,943.50
2022-10-01T01:15:48.299Z,943.49
2022-10-01T01:15:58.263Z,943.47
2022-10-01T01:16:08.335Z,943.48
2022-10-01T01:16:18.297Z,943.51
2022-10-01T01:16:28.291Z,943.50
2022-10-01T01:16:38.243Z,943.49
2022-10-01T01:16:48.238Z,943.49
2022-10-01T01:16:58.240Z,943.48
2022-10-01T01:17:08.242Z,943.48
2022-10-01T01:17:18.249Z,943.47
2022-10-01T01:17:28.241Z,943.45
2022-10-01T01:17:38.244Z,943.45
2022-10-01T01:17:48.244Z,943.45
2022-10-01T01:17:58.244Z,943.45
2022-10-01T01:18:08.245Z,943.46
2022-10-01T01:18:18.248Z,943.46
2022-10-01T01:18:28.246Z,943.46
2022-10-01T01:18:38.249Z,943.45
2022-10-01T01:18:48.236Z,943.45
2022-10-01T01:18:58.252Z,943.45
2022-10-01T01:19:08.252Z,943.45
2022-10-01T01:19:18.252Z,943.45
2022-10-01T01:19:28.253Z,943.44
2022-10-01T01:19:38.252Z,943.42
2022-10-01T01:19:48.254Z,943.42
2022-10-01T01:19:58.257Z,943.44
2022-10-01T01:20:08.255Z,943.45
2022-10-01T01:20:18.258Z,943.46
2022-10-01T01:20:28.259Z,943.44
2022-10-01T01:20:38.260Z,943.41
2022-10-01T01:20:48.262Z,943.43
2022-10-01T01:20:58.260Z,943.44
2022-10-01T01:21:08.262Z,943.43
2022-10-01T01:21:18.266Z,943.43
2022-10-01T01:21:28.266Z,943.44
2022-10-01T01:21:38.270Z,943.42
2022-10-01T01:21:48.268Z,943.41
2022-10-01T01:21:58.269Z,943.40
2022-10-01T01:22:08.272Z,943.40
2022-10-01T01:22:18.273Z,943.40
2022-10-01T01:22:28.273Z,943.40
2022-10-01T01:22:38.279Z,943.41
2022-10-01T01:22:48.274Z,943.40
2022-10-01T01:22:58.276Z,943.39
2022-10-01T01:23:08.278Z,943.39
2022-10-01T01:23:18.260Z,943.41
2022-10-01T01:23:28.280Z,943.40
2022-10-01T01:23:38.278Z,943.40
2022-10-01T01:23:48.263Z,943.41
2022-10-01T01:23:58.282Z,943.39
2022-10-01T01:24:08.289Z,943.37
2022-10-01T01:24:18.283Z,943.38
2022-10-01T01:24:28.399Z,943.39
2022-10-01T01:24:38.289Z,943.39
2022-10-01T01:24:48.287Z,943.39
2022-10-01T01:24:58.289Z,943.40
2022-10-01T01:25:08.289Z,943.38
2022-10-01T01:25:18.290Z,943.39
2022-10-01T01:25:28.293Z,943.38
2022-10-01T01:25:38.293Z,943.37
2022-10-01T01:25:48.277Z,943.40
2022-10-01T01:25:58.298Z,943.38
2022-10-01T01:26:08.295Z,943.38
2022-10-01T01:26:18.299Z,943.42
2022-10-01T01:26:28.298Z,943.39
2022-10-01T01:26:38.301Z,943.39
2022-10-01T01:26:48.300Z,943.40
2022-10-01T01:26:58.301Z,943.37
2022-10-01T01:27:08.301Z,943.39
2022-10-01T01:27:18.303Z,943.39
2022-10-01T01:27:28.304Z,943.38
2022-10-01T01:27:38.314Z,943.39
2022-10-01T01:27:48.345Z,943.39
2022-10-01T01:27:58.371Z,943.38
2022-10-01T01:28:08.395Z,943.38
2022-10-01T01:28:18.364Z,943.40
2022-10-01T01:28:28.375Z,943.39
2022-10-01T01:28:38.310Z,943.38
2022-10-01T01:28:48.312Z,943.39
2022-10-01T01:28:58.314Z,943.37
2022-10-01T01:29:08.314Z,943.38
2022-10-01T01:29:18.314Z,943.36
2022-10-01T01:29:28.317Z,943.36
2022-10-01T01:29:38.316Z,943.38
2022-10-01T01:29:48.320Z,943.34
2022-10-01T01:29:58.320Z,943.32
2022-10-01T01:30:08.322Z,943.34
2022-10-01T01:30:18.324Z,943.35
2022-10-01T01:30:28.322Z,943.36
2022-10-01T01:30:38.322Z,943.35
2022-10-01T01:30:48.358Z,943.34
2022-10-01T01:30:58.364Z,943.33
2022-10-01T01:31:08.377Z,943.33
2022-10-01T01:31:18.395Z,943.32
2022-10-01T01:31:28.384Z,943.31
2022-10-01T01:31:38.558Z,943.31
2022-10-01T01:31:48.331Z,943.33
2022-10-01T01:31:58.330Z,943.32
2022-10-01T01:32:12.636Z,943.32
2022-10-01T01:32:19.386Z,943.33
2022-10-01T01:32:28.341Z,943.31
2022-10-01T01:32:38.337Z,943.31
2022-10-01T01:32:48.337Z,943.33
2022-10-01T01:32:58.337Z,943.30
2022-10-01T01:33:08.339Z,943.29
2022-10-01T01:33:18.342Z,943.27
2022-10-01T01:33:28.340Z,943.29
2022-10-01T01:33:38.341Z,943.26
2022-10-01T01:33:48.339Z,943.29
2022-10-01T01:33:58.344Z,943.27
2022-10-01T01:34:08.342Z,943.27
2022-10-01T01:34:18.343Z,943.26
2022-10-01T01:34:28.348Z,943.26
2022-10-01T01:34:38.361Z,943.27
2022-10-01T01:34:48.347Z,943.28
2022-10-01T01:34:58.347Z,943.28
2022-10-01T01:35:08.349Z,943.26
2022-10-01T01:35:18.350Z,943.27
2022-10-01T01:35:28.350Z,943.27
2022-10-01T01:35:38.353Z,943.26
2022-10-01T01:35:48.352Z,943.25
2022-10-01T01:35:58.355Z,943.24
2022-10-01T01:36:08.355Z,943.23
2022-10-01T01:36:18.354Z,943.25
2022-10-01T01:36:28.356Z,943.26
2022-10-01T01:36:38.358Z,943.25
2022-10-01T01:36:48.358Z,943.26
2022-10-01T01:36:58.358Z,943.26
2022-10-01T01:37:08.358Z,943.25
2022-10-01T01:37:18.361Z,943.25
2022-10-01T01:37:28.362Z,943.25
2022-10-01T01:37:38.366Z,943.24
2022-10-01T01:37:48.364Z,943.24
2022-10-01T01:37:58.368Z,943.23
2022-10-01T01:38:08.369Z,943.23
2022-10-01T01:38:18.368Z,943.23
2022-10-01T01:38:28.369Z,943.23
2022-10-01T01:38:38.375Z,943.20
2022-10-01T01:38:48.373Z,943.20
2022-10-01T01:38:58.375Z,943.21
2022-10-01T01:39:08.376Z,943.21
2022-10-01T01:39:18.375Z,943.19
2022-10-01T01:39:28.376Z,943.20
2022-10-01T01:39:38.376Z,943.19
2022-10-01T01:39:48.377Z,943.19
2022-10-01T01:39:58.377Z,943.17
2022-10-01T01:40:08.377Z,943.19
2022-10-01T01:40:18.380Z,943.18
2022-10-01T01:40:28.380Z,943.17
2022-10-01T01:40:38.388Z,943.18
2022-10-01T01:40:48.381Z,943.17
2022-10-01T01:40:58.382Z,943.15
2022-10-01T01:41:08.383Z,943.16
2022-10-01T01:41:18.385Z,943.15
2022-10-01T01:41:28.385Z,943.16
2022-10-01T01:41:38.386Z,943.17
2022-10-01T01:41:48.370Z,943.16
2022-10-01T01:41:58.446Z,943.15
2022-10-01T01:42:08.389Z,943.15
2022-10-01T01:42:18.390Z,943.14
2022-10-01T01:42:28.393Z,943.15
2022-10-01T01:42:38.393Z,943.15
2022-10-01T01:42:48.395Z,943.15
2022-10-01T01:42:58.395Z,943.13
2022-10-01T01:43:08.396Z,943.14
2022-10-01T01:43:18.398Z,943.14
2022-10-01T01:43:28.397Z,943.14
2022-10-01T01:43:38.400Z,943.13
2022-10-01T01:43:48.382Z,943.13
2022-10-01T01:43:58.401Z,943.14
2022-10-01T01:44:08.402Z,943.13
2022-10-01T01:44:18.401Z,943.13
2022-10-01T01:44:28.401Z,943.13
2022-10-01T01:44:38.404Z,943.13
2022-10-01T01:44:48.409Z,943.11
2022-10-01T01:44:58.403Z,943.10
2022-10-01T01:45:08.413Z,943.10
2022-10-01T01:45:18.405Z,943.10
2022-10-01T01:45:28.452Z,943.09
2022-10-01T01:45:38.443Z,943.11
2022-10-01T01:45:48.435Z,943.11
2022-10-01T01:45:58.457Z,943.10
2022-10-01T01:46:08.452Z,943.09
2022-10-01T01:46:18.437Z,943.11
2022-10-01T01:46:28.413Z,943.12
2022-10-01T01:46:38.415Z,943.09
2022-10-01T01:46:48.416Z,943.09
2022-10-01T01:46:58.419Z,943.09
2022-10-01T01:47:08.421Z,943.08
2022-10-01T01:47:18.419Z,943.07
2022-10-01T01:47:28.422Z,943.05
2022-10-01T01:47:38.426Z,943.04
2022-10-01T01:47:48.420Z,943.05
2022-10-01T01:47:58.423Z,943.06
2022-10-01T01:48:08.426Z,943.06
2022-10-01T01:48:18.424Z,943.12
2022-10-01T01:48:28.427Z,943.06
2022-10-01T01:48:38.425Z,943.08
2022-10-01T01:48:48.427Z,943.06
2022-10-01T01:48:58.428Z,943.09
2022-10-01T01:49:08.410Z,943.06
2022-10-01T01:49:18.429Z,943.06
2022-10-01T01:49:28.430Z,943.07
2022-10-01T01:49:38.432Z,943.10
2022-10-01T01:49:48.431Z,943.08
2022-10-01T01:49:58.443Z,943.07
2022-10-01T01:50:08.432Z,943.09
2022-10-01T01:50:18.434Z,943.08
2022-10-01T01:50:28.432Z,943.07
2022-10-01T01:50:38.435Z,943.07
2022-10-01T01:50:48.436Z,943.06
2022-10-01T01:50:58.436Z,943.04
2022-10-01T01:51:08.435Z,943.04
2022-10-01T01:51:18.441Z,943.05
2022-10-01T01:51:28.438Z,943.05
2022-10-01T01:51:38.445Z,943.04
2022-10-01T01:51:48.439Z,943.03
2022-10-01T01:51:58.440Z,943.03
2022-10-01T01:52:08.423Z,943.04
2022-10-01T01:52:18.425Z,943.03
2022-10-01T01:52:28.443Z,943.03
2022-10-01T01:52:38.452Z,943.03
2022-10-01T01:52:48.445Z,943.02
2022-10-01T01:52:58.446Z,943.04
2022-10-01T01:53:08.448Z,943.03
2022-10-01T01:53:18.451Z,943.03
2022-10-01T01:53:28.448Z,943.03
2022-10-01T01:53:38.450Z,943.02
2022-10-01T01:53:48.449Z,943.02
2022-10-01T01:53:58.450Z,943.01
2022-10-01T01:54:08.451Z,942.99
2022-10-01T01:54:18.453Z,942.98
2022-10-01T01:54:28.453Z,943.00
2022-10-01T01:54:38.454Z,942.99
2022-10-01T01:54:48.458Z,942.98
2022-10-01T01:54:58.455Z,942.99
2022-10-01T01:55:08.468Z,942.96
2022-10-01T01:55:18.458Z,942.98
2022-10-01T01:55:28.457Z,942.99
2022-10-01T01:55:38.459Z,942.98
2022-10-01T01:55:48.460Z,942.98
2022-10-01T01:55:58.460Z,942.99
2022-10-01T01:56:08.444Z,942.98
2022-10-01T01:56:18.465Z,942.97
2022-10-01T01:56:28.462Z,942.94
2022-10-01T01:56:38.465Z,942.95
2022-10-01T01:56:48.467Z,942.93
2022-10-01T01:56:58.468Z,942.91
2022-10-01T01:57:08.475Z,942.92
2022-10-01T01:57:18.474Z,942.90
2022-10-01T01:57:28.471Z,942.89
2022-10-01T01:57:38.478Z,942.90
2022-10-01T01:57:48.475Z,942.88
2022-10-01T01:57:58.475Z,942.90
2022-10-01T01:58:08.478Z,942.89
2022-10-01T01:58:18.478Z,942.89
2022-10-01T01:58:28.481Z,942.91
2022-10-01T01:58:38.482Z,942.90
2022-10-01T01:58:48.481Z,942.93
2022-10-01T01:58:58.483Z,942.90
2022-10-01T01:59:08.483Z,942.91
2022-10-01T01:59:18.486Z,942.91
2022-10-01T01:59:28.483Z,942.88
2022-10-01T01:59:38.482Z,942.89
2022-10-01T01:59:48.488Z,942.86
2022-10-01T01:59:58.492Z,942.87
2022-10-01T02:00:08.487Z,942.89
2022-10-01T02:00:18.491Z,942.88
2022-10-01T02:00:28.491Z,942.90
2022-10-01T02:00:38.490Z,942.89
2022-10-01T02:00:48.491Z,942.88
2022-10-01T02:00:58.492Z,942.88
2022-10-01T02:01:08.549Z,942.87
2022-10-01T02:01:18.544Z,942.87
2022-10-01T02:01:28.593Z,942.86
2022-10-01T02:01:38.977Z,942.88
2022-10-01T02:01:48.579Z,942.87
2022-10-01T02:01:58.585Z,942.87
2022-10-01T02:02:08.631Z,942.89
2022-10-01T02:02:18.519Z,942.87
2022-10-01T02:02:28.607Z,942.86
2022-10-01T02:02:38.585Z,942.87
2022-10-01T02:02:48.575Z,942.88
2022-10-01T02:02:58.585Z,942.88
2022-10-01T02:03:08.509Z,942.90
2022-10-01T02:03:18.511Z,942.89
2022-10-01T02:03:28.511Z,942.85
2022-10-01T02:03:38.512Z,942.84
2022-10-01T02:03:48.514Z,942.85
2022-10-01T02:03:58.516Z,942.87
2022-10-01T02:04:08.516Z,942.85
2022-10-01T02:04:18.516Z,942.86
2022-10-01T02:04:28.519Z,942.86
2022-10-01T02:04:38.518Z,942.85
2022-10-01T02:04:48.519Z,942.85